createdAt,value
2022-11-16T00:01:02.431Z,99.90
2022-11-16T00:03:32.578Z,99.90
2022-11-16T00:06:02.610Z,99.90
2022-11-16T00:08:32.564Z,99.90
2022-11-16T00:11:07.430Z,99.90
2022-11-16T00:13:37.231Z,99.90
2022-11-16T00:16:09.489Z,99.90
2022-11-16T00:18:38.132Z,99.90
2022-11-16T00:21:07.367Z,99.90
2022-11-16T00:23:38.553Z,99.90
2022-11-16T00:26:08.504Z,99.90
2022-11-16T00:28:37.650Z,99.90
2022-11-16T00:31:08.784Z,99.90
2022-11-16T00:33:37.666Z,99.90
2022-11-16T00:36:07.834Z,99.90
2022-11-16T00:38:36.667Z,99.90
2022-11-16T00:41:07.277Z,99.90
2022-11-16T00:43:37.090Z,99.90
2022-11-16T00:46:07.583Z,99.90
2022-11-16T00:48:36.441Z,99.90
2022-11-16T00:51:05.295Z,99.90
2022-11-16T00:53:34.344Z,99.90
2022-11-16T00:56:03.199Z,99.90
2022-11-16T00:58:36.529Z,99.90
2022-11-16T01:01:12.808Z,99.90
2022-11-16T01:03:41.547Z,99.90
2022-11-16T01:06:14.950Z,99.90
2022-11-16T01:08:45.397Z,99.90
2022-11-16T01:11:33.469Z,99.90
2022-11-16T01:14:04.997Z,99.90
2022-11-16T01:16:35.255Z,99.90
2022-11-16T01:19:04.944Z,99.90
2022-11-16T01:21:34.564Z,99.90
2022-11-16T01:24:03.295Z,99.90
2022-11-16T01:26:31.894Z,99.90
2022-11-16T01:29:00.992Z,99.90
2022-11-16T01:31:35.174Z,99.90
2022-11-16T01:34:05.146Z,99.90
2022-11-16T01:36:35.552Z,99.90
2022-11-16T01:39:06.119Z,99.90
2022-11-16T01:41:57.645Z,99.90
2022-11-16T01:44:59.384Z,99.90
2022-11-16T01:47:30.495Z,99.90
2022-11-16T01:50:07.630Z,99.90
2022-11-16T01:52:42.907Z,99.90
2022-11-16T01:55:12.918Z,99.90
2022-11-16T01:57:51.193Z,99.90
2022-11-16T02:00:20.288Z,99.90
2022-11-16T02:03:00.689Z,99.90
2022-11-16T02:06:02.902Z,99.90
2022-11-16T02:09:00.250Z,99.90
2022-11-16T02:11:55.391Z,99.90
2022-11-16T02:14:35.982Z,99.90
2022-11-16T02:17:13.567Z,99.90
2022-11-16T02:20:16.428Z,99.90
2022-11-16T02:23:06.143Z,99.90
2022-11-16T02:25:47.759Z,99.90
2022-11-16T02:28:35.679Z,99.90
2022-11-16T02:31:12.173Z,99.90
2022-11-16T02:33:45.670Z,99.90
2022-11-16T02:36:19.162Z,99.90
2022-11-16T02:38:52.936Z,99.90
2022-11-16T02:41:24.363Z,99.90
2022-11-16T02:43:58.732Z,99.90
2022-11-16T02:46:33.384Z,99.90
2022-11-16T02:49:07.232Z,99.90
2022-11-16T02:51:38.054Z,99.90
2022-11-16T02:54:13.910Z,99.90
2022-11-16T02:56:55.105Z,99.90
2022-11-16T02:59:32.327Z,99.90
2022-11-16T03:02:12.980Z,99.90
2022-11-16T03:04:44.856Z,99.90
2022-11-16T03:07:17.579Z,99.90
2022-11-16T03:09:50.482Z,99.90
2022-11-16T03:12:24.079Z,99.90
2022-11-16T03:14:57.192Z,99.90
2022-11-16T03:17:31.381Z,99.90
2022-11-16T03:20:05.723Z,99.90
2022-11-16T03:22:42.920Z,99.90
2022-11-16T03:25:17.187Z,99.90
2022-11-16T03:27:54.369Z,99.90
2022-11-16T03:30:28.046Z,99.90
2022-11-16T03:33:05.222Z,99.90
2022-11-16T03:35:38.538Z,99.90
2022-11-16T03:38:10.859Z,99.90
2022-11-16T03:40:46.178Z,99.90
2022-11-16T03:43:18.778Z,99.90
2022-11-16T03:45:48.642Z,99.90
2022-11-16T03:48:18.609Z,99.90
2022-11-16T03:50:47.454Z,99.90
2022-11-16T03:53:16.433Z,99.90
2022-11-16T03:55:49.778Z,99.90
2022-11-16T03:58:19.228Z,99.90
2022-11-16T04:00:48.431Z,99.90
2022-11-16T04:03:18.528Z,99.90
2022-11-16T04:06:06.376Z,99.90
2022-11-16T04:08:52.259Z,99.90
2022-11-16T04:11:40.638Z,99.90
2022-11-16T04:14:32.499Z,99.90
2022-11-16T04:17:18.553Z,99.90
2022-11-16T04:20:06.222Z,99.90
2022-11-16T04:22:59.297Z,99.90
2022-11-16T04:25:33.637Z,99.90
2022-11-16T04:28:16.869Z,99.90
2022-11-16T04:31:11.874Z,99.90
2022-11-16T04:34:00.396Z,99.90
2022-11-16T04:36:50.440Z,99.90
2022-11-16T04:39:19.242Z,99.90
2022-11-16T04:42:06.417Z,99.90
2022-11-16T04:45:00.167Z,99.90
2022-11-16T04:47:35.465Z,99.90
2022-11-16T04:50:04.740Z,99.90
2022-11-16T04:52:35.326Z,99.90
2022-11-16T04:55:05.985Z,99.90
2022-11-16T04:57:34.644Z,99.90
2022-11-16T05:00:03.639Z,99.90
2022-11-16T05:02:32.752Z,99.90
2022-11-16T05:05:01.406Z,99.90
2022-11-16T05:07:31.697Z,99.90
2022-11-16T05:10:11.971Z,99.90
2022-11-16T05:12:42.646Z,99.90
2022-11-16T05:15:12.765Z,99.90
2022-11-16T05:17:41.726Z,99.90
2022-11-16T05:20:33.429Z,99.90
2022-11-16T05:23:05.420Z,99.90
2022-11-16T05:25:39.701Z,99.90
2022-11-16T05:28:12.456Z,99.90
2022-11-16T05:30:46.556Z,99.90
2022-11-16T05:33:19.824Z,99.90
2022-11-16T05:35:51.703Z,99.90
2022-11-16T05:38:21.586Z,99.90
2022-11-16T05:40:55.549Z,99.90
2022-11-16T05:43:24.653Z,99.90
2022-11-16T05:46:18.834Z,99.90
2022-11-16T05:48:47.661Z,99.90
2022-11-16T05:51:16.468Z,99.90
2022-11-16T05:53:45.393Z,99.90
2022-11-16T05:56:21.422Z,99.90
2022-11-16T05:58:51.866Z,99.90
2022-11-16T06:01:20.474Z,99.90
2022-11-16T06:03:51.048Z,99.90
2022-11-16T06:06:20.793Z,99.90
2022-11-16T06:08:50.641Z,99.90
2022-11-16T06:11:31.387Z,99.90
2022-11-16T06:14:03.128Z,99.90
2022-11-16T06:16:32.348Z,99.90
2022-11-16T06:19:03.071Z,99.90
2022-11-16T06:21:31.694Z,99.90
2022-11-16T06:24:02.682Z,99.90
2022-11-16T06:26:33.323Z,99.90
2022-11-16T06:29:03.266Z,99.90
2022-11-16T06:31:31.952Z,99.90
2022-11-16T06:34:03.052Z,99.90
2022-11-16T06:36:32.702Z,99.90
2022-11-16T06:39:02.105Z,99.90
2022-11-16T06:41:41.251Z,99.90
2022-11-16T06:44:11.949Z,99.90
2022-11-16T06:46:48.002Z,99.90
2022-11-16T06:49:16.673Z,99.90
2022-11-16T06:51:47.783Z,99.90
2022-11-16T06:54:16.984Z,99.90
2022-11-16T06:56:47.571Z,99.90
2022-11-16T06:59:16.571Z,99.90
2022-11-16T07:01:46.596Z,99.90
2022-11-16T07:04:16.698Z,99.90
2022-11-16T07:06:52.621Z,99.90
2022-11-16T07:09:21.453Z,99.90
2022-11-16T07:11:51.413Z,99.90
2022-11-16T07:14:22.819Z,99.90
2022-11-16T07:16:54.980Z,99.90
2022-11-16T07:19:27.866Z,99.90
2022-11-16T07:21:56.470Z,99.90
2022-11-16T07:24:25.331Z,99.90
2022-11-16T07:26:55.388Z,99.90
2022-11-16T07:29:27.619Z,99.90
2022-11-16T07:32:34.735Z,99.90
2022-11-16T07:35:12.413Z,99.90
2022-11-16T07:37:41.887Z,99.90
2022-11-16T07:40:11.588Z,99.90
2022-11-16T07:42:43.896Z,99.90
2022-11-16T07:45:31.277Z,99.90
2022-11-16T07:48:07.072Z,99.90
2022-11-16T07:50:54.359Z,99.90
2022-11-16T07:53:26.552Z,99.90
2022-11-16T07:55:55.713Z,99.90
2022-11-16T07:58:28.629Z,99.90
2022-11-16T08:01:05.990Z,99.90
2022-11-16T08:03:36.957Z,99.90
2022-11-16T08:06:08.963Z,99.90
2022-11-16T08:08:37.692Z,99.90
2022-11-16T08:11:08.454Z,99.90
2022-11-16T08:13:41.245Z,99.90
2022-11-16T08:16:13.893Z,99.90
2022-11-16T08:18:43.896Z,99.90
2022-11-16T08:22:07.325Z,99.90
2022-11-16T08:24:46.479Z,99.90
2022-11-16T08:27:17.555Z,99.90
2022-11-16T08:29:52.469Z,99.90
2022-11-16T08:32:21.115Z,99.90
2022-11-16T08:34:50.010Z,99.90
2022-11-16T08:37:18.747Z,99.90
2022-11-16T08:39:48.886Z,99.90
2022-11-16T08:42:17.599Z,99.90
2022-11-16T08:44:49.072Z,99.90
2022-11-16T08:47:21.875Z,99.90
2022-11-16T08:52:42.588Z,99.90
2022-11-16T08:55:13.953Z,99.90
2022-11-16T08:57:43.708Z,99.90
2022-11-16T09:00:15.000Z,99.90
2022-11-16T09:02:45.007Z,99.90
2022-11-16T09:05:13.493Z,99.90
2022-11-16T09:07:44.108Z,99.90
2022-11-16T09:10:12.767Z,99.90
2022-11-16T09:15:28.177Z,99.90
2022-11-16T09:17:58.083Z,99.90
2022-11-16T09:20:27.348Z,99.90
2022-11-16T09:22:56.776Z,99.90
2022-11-16T09:25:25.267Z,99.90
2022-11-16T09:27:55.982Z,99.90
2022-11-16T09:30:24.537Z,99.90
2022-11-16T09:32:53.109Z,99.90
2022-11-16T09:35:23.018Z,99.90
2022-11-16T09:37:51.671Z,99.90
2022-11-16T09:43:16.847Z,99.90
2022-11-16T09:45:53.954Z,99.90
2022-11-16T09:48:23.157Z,99.90
2022-11-16T09:53:46.222Z,99.90
2022-11-16T09:56:22.496Z,99.90
2022-11-16T09:58:57.492Z,99.90
2022-11-16T10:01:29.676Z,99.90
2022-11-16T10:04:06.636Z,99.90
2022-11-16T10:06:45.924Z,99.90
2022-11-16T10:09:15.455Z,99.90
2022-11-16T10:11:53.622Z,99.90
2022-11-16T10:14:43.562Z,99.90
2022-11-16T10:17:23.546Z,99.90
2022-11-16T10:19:55.676Z,99.90
2022-11-16T10:22:36.855Z,99.90
2022-11-16T10:25:14.213Z,99.90
2022-11-16T10:28:08.520Z,99.90
2022-11-16T10:30:41.513Z,99.90
2022-11-16T10:33:15.895Z,99.90
2022-11-16T10:35:49.141Z,99.90
2022-11-16T10:38:23.918Z,99.90
2022-11-16T10:40:56.526Z,99.90
2022-11-16T10:43:27.714Z,99.90
2022-11-16T10:46:01.674Z,99.90
2022-11-16T10:48:39.690Z,99.90
2022-11-16T10:51:09.939Z,99.90
2022-11-16T10:53:41.547Z,98.80
2022-11-16T10:56:18.640Z,99.90
2022-11-16T10:58:59.321Z,98.80
2022-11-16T11:01:37.035Z,99.50
2022-11-16T11:04:17.421Z,98.40
2022-11-16T11:06:48.396Z,98.50
2022-11-16T11:09:26.967Z,98.70
2022-11-16T11:12:23.561Z,99.40
2022-11-16T11:15:06.157Z,98.80
2022-11-16T11:17:36.918Z,98.40
2022-11-16T11:20:07.392Z,98.40
2022-11-16T11:22:44.316Z,98.10
2022-11-16T11:25:21.642Z,98.20
2022-11-16T11:27:51.062Z,98.50
2022-11-16T11:30:21.507Z,98.40
2022-11-16T11:32:50.428Z,98.50
2022-11-16T11:35:30.283Z,98.30
2022-11-16T11:38:07.410Z,98.30
2022-11-16T11:43:25.796Z,97.90
2022-11-16T11:45:59.044Z,98.10
2022-11-16T11:48:35.697Z,98.10
2022-11-16T11:51:12.167Z,98.60
2022-11-16T11:53:49.846Z,98.50
2022-11-16T11:56:20.748Z,98.00
2022-11-16T11:58:50.205Z,98.50
2022-11-16T12:01:39.306Z,98.50
2022-11-16T12:04:36.502Z,98.60
2022-11-16T12:07:13.536Z,98.40
2022-11-16T12:09:52.841Z,98.50
2022-11-16T12:12:38.881Z,98.40
2022-11-16T12:15:53.419Z,97.00
2022-11-16T12:18:42.271Z,94.40
2022-11-16T12:21:14.831Z,93.10
2022-11-16T12:24:09.476Z,91.90
2022-11-16T12:26:49.249Z,91.70
2022-11-16T12:29:27.021Z,92.00
2022-11-16T12:32:16.656Z,93.40
2022-11-16T12:35:01.791Z,95.00
2022-11-16T12:37:39.412Z,96.90
2022-11-16T12:40:23.333Z,97.50
2022-11-16T12:42:59.911Z,98.50
2022-11-16T12:45:55.025Z,98.90
2022-11-16T12:48:57.490Z,99.50
2022-11-16T12:51:37.438Z,99.60
2022-11-16T12:54:25.093Z,99.90
2022-11-16T12:57:00.291Z,99.90
2022-11-16T12:59:48.907Z,99.90
2022-11-16T13:02:30.444Z,99.90
2022-11-16T13:05:05.015Z,99.90
2022-11-16T13:07:40.152Z,99.90
2022-11-16T13:10:17.329Z,99.90
2022-11-16T13:12:52.726Z,99.90
2022-11-16T13:15:30.114Z,99.90
2022-11-16T13:18:03.251Z,99.90
2022-11-16T13:20:40.618Z,99.90
2022-11-16T13:23:15.571Z,99.90
2022-11-16T13:25:50.373Z,99.90
2022-11-16T13:28:33.183Z,99.90
2022-11-16T13:31:07.178Z,99.90
2022-11-16T13:33:50.266Z,99.90
2022-11-16T13:36:43.731Z,99.90
2022-11-16T13:39:20.355Z,99.90
2022-11-16T13:41:52.043Z,99.90
2022-11-16T13:44:31.935Z,99.90
2022-11-16T13:47:05.330Z,99.90
2022-11-16T13:49:37.554Z,99.90
2022-11-16T13:52:28.586Z,99.90
2022-11-16T13:54:59.224Z,99.90
2022-11-16T13:57:30.801Z,99.90
2022-11-16T14:00:11.416Z,99.90
2022-11-16T14:02:41.263Z,99.90
2022-11-16T14:05:37.824Z,99.90
2022-11-16T14:08:49.256Z,99.90
2022-11-16T14:11:35.551Z,99.90
2022-11-16T14:14:06.856Z,99.90
2022-11-16T14:16:56.095Z,99.90
2022-11-16T14:19:57.018Z,99.90
2022-11-16T14:22:53.012Z,99.90
2022-11-16T14:25:33.576Z,99.90
2022-11-16T14:28:24.745Z,99.90
2022-11-16T14:31:02.866Z,99.90
2022-11-16T14:33:34.811Z,99.90
2022-11-16T14:36:06.525Z,99.90
2022-11-16T14:38:39.094Z,99.90
2022-11-16T14:41:13.818Z,99.90
2022-11-16T14:43:46.634Z,99.90
2022-11-16T14:46:22.205Z,99.90
2022-11-16T14:48:51.423Z,99.90
2022-11-16T14:51:24.126Z,99.90
2022-11-16T14:53:58.859Z,99.90
2022-11-16T14:56:27.359Z,99.90
2022-11-16T14:58:58.238Z,99.90
2022-11-16T15:01:30.022Z,99.90
2022-11-16T15:04:02.849Z,99.90
2022-11-16T15:06:36.968Z,99.90
2022-11-16T15:09:07.138Z,99.90
2022-11-16T15:11:56.875Z,99.90
2022-11-16T15:14:30.468Z,99.90
2022-11-16T15:17:02.284Z,99.90
2022-11-16T15:19:32.056Z,99.90
2022-11-16T15:22:02.838Z,99.90
2022-11-16T15:24:33.878Z,99.90
2022-11-16T15:27:13.474Z,99.90
2022-11-16T15:29:42.140Z,99.90
2022-11-16T15:32:16.966Z,99.90
2022-11-16T15:34:49.011Z,99.90
2022-11-16T15:37:28.538Z,99.90
2022-11-16T15:40:00.706Z,99.90
2022-11-16T15:42:29.725Z,99.90
2022-11-16T15:45:00.431Z,99.90
2022-11-16T15:47:29.542Z,99.90
2022-11-16T15:49:58.170Z,99.90
2022-11-16T15:52:46.240Z,99.90
2022-11-16T15:55:31.852Z,99.90
2022-11-16T15:58:03.953Z,99.90
2022-11-16T16:00:34.864Z,99.90
2022-11-16T16:03:07.352Z,99.90
2022-11-16T16:05:40.839Z,99.90
2022-11-16T16:08:33.096Z,99.90
2022-11-16T16:11:10.460Z,99.90
2022-11-16T16:13:40.734Z,99.90
2022-11-16T16:16:27.442Z,99.90
2022-11-16T16:19:03.789Z,99.90
2022-11-16T16:21:46.114Z,99.90
2022-11-16T16:24:36.998Z,99.90
2022-11-16T16:27:18.801Z,99.90
2022-11-16T16:29:48.199Z,99.90
2022-11-16T16:32:26.032Z,99.90
2022-11-16T16:34:55.150Z,99.90
2022-11-16T16:37:24.349Z,99.90
2022-11-16T16:39:53.163Z,99.90
2022-11-16T16:42:23.392Z,99.90
2022-11-16T16:44:52.090Z,99.90
2022-11-16T16:47:21.318Z,99.90
2022-11-16T16:49:51.234Z,99.90
2022-11-16T16:52:25.443Z,99.90
2022-11-16T16:55:03.969Z,99.90
2022-11-16T16:57:34.733Z,99.90
2022-11-16T17:00:03.357Z,99.90
2022-11-16T17:02:31.775Z,99.90
2022-11-16T17:05:00.187Z,99.90
2022-11-16T17:07:28.710Z,99.90
2022-11-16T17:09:57.205Z,99.90
2022-11-16T17:12:25.622Z,99.90
2022-11-16T17:14:55.640Z,99.90
2022-11-16T17:17:25.500Z,99.90
2022-11-16T17:19:54.614Z,99.90
2022-11-16T17:22:23.521Z,99.90
2022-11-16T17:24:52.010Z,99.90
2022-11-16T17:27:20.942Z,99.90
2022-11-16T17:29:49.497Z,99.90
2022-11-16T17:32:19.407Z,99.90
2022-11-16T17:34:47.962Z,99.90
2022-11-16T17:44:18.683Z,99.90
2022-11-16T17:46:51.327Z,99.90
2022-11-16T17:49:19.947Z,99.90
2022-11-16T17:51:48.357Z,99.90
2022-11-16T17:54:16.825Z,99.90
2022-11-16T17:56:45.414Z,99.90
2022-11-16T17:59:15.466Z,99.90
2022-11-16T18:01:45.115Z,99.90
2022-11-16T18:04:13.656Z,99.90
2022-11-16T18:06:42.439Z,99.90
2022-11-16T18:09:11.226Z,99.90
2022-11-16T18:11:40.316Z,99.90
2022-11-16T18:14:10.578Z,99.90
2022-11-16T18:16:43.540Z,99.90
2022-11-16T18:19:17.434Z,99.90
2022-11-16T18:21:47.086Z,99.90
2022-11-16T18:24:15.929Z,99.90
2022-11-16T18:26:44.482Z,99.90
2022-11-16T18:29:15.933Z,99.90
2022-11-16T18:31:46.809Z,99.90
2022-11-16T18:34:15.766Z,99.90
2022-11-16T18:36:44.306Z,99.90
2022-11-16T18:39:12.990Z,99.90
2022-11-16T18:41:48.568Z,99.90
2022-11-16T18:44:20.196Z,99.90
2022-11-16T18:46:50.106Z,99.90
2022-11-16T18:49:18.940Z,99.90
2022-11-16T18:51:47.457Z,99.90
2022-11-16T18:54:15.956Z,99.90
2022-11-16T18:56:44.454Z,99.90
2022-11-16T18:59:12.975Z,99.90
2022-11-16T19:01:41.449Z,99.90
2022-11-16T19:04:12.449Z,99.90
2022-11-16T19:06:41.148Z,99.90
2022-11-16T19:09:09.806Z,99.90
2022-11-16T19:11:38.448Z,99.90
2022-11-16T19:14:07.857Z,99.90
2022-11-16T19:16:37.117Z,99.90
2022-11-16T19:19:06.048Z,99.90
2022-11-16T19:21:36.135Z,99.90
2022-11-16T19:24:08.862Z,99.90
2022-11-16T19:26:39.229Z,99.90
2022-11-16T19:29:07.774Z,99.90
2022-11-16T19:31:36.478Z,99.90
2022-11-16T19:34:07.053Z,99.90
2022-11-16T19:36:38.444Z,99.90
2022-11-16T19:39:07.520Z,99.90
2022-11-16T19:41:36.559Z,99.90
2022-11-16T19:44:05.455Z,99.90
2022-11-16T19:46:35.997Z,99.90
2022-11-16T19:49:05.610Z,99.90
2022-11-16T19:51:35.010Z,99.90
2022-11-16T19:54:06.051Z,99.90
2022-11-16T19:56:35.155Z,99.90
2022-11-16T19:59:04.081Z,99.90
2022-11-16T20:01:32.951Z,99.90
2022-11-16T20:04:03.690Z,99.90
2022-11-16T20:06:35.609Z,99.90
2022-11-16T20:09:09.097Z,99.90
2022-11-16T20:11:40.445Z,99.90
2022-11-16T20:14:11.920Z,99.90
2022-11-16T20:16:43.734Z,99.90
2022-11-16T20:19:13.556Z,99.90
2022-11-16T20:21:44.578Z,99.90
2022-11-16T20:24:17.860Z,99.90
2022-11-16T20:26:49.711Z,99.90
2022-11-16T20:29:21.078Z,99.90
2022-11-16T20:31:50.030Z,99.90
2022-11-16T20:34:20.836Z,99.90
2022-11-16T20:36:52.696Z,99.90
2022-11-16T20:39:22.954Z,99.90
2022-11-16T20:41:53.263Z,99.90
2022-11-16T20:44:22.650Z,99.90
2022-11-16T20:46:52.552Z,99.90
2022-11-16T20:49:21.157Z,99.90
2022-11-16T20:51:51.141Z,99.90
2022-11-16T20:54:19.763Z,99.90
2022-11-16T20:56:50.626Z,99.90
2022-11-16T20:59:19.361Z,99.90
2022-11-16T21:01:48.913Z,99.90
2022-11-16T21:04:17.995Z,99.90
2022-11-16T21:06:46.849Z,99.90
2022-11-16T21:09:22.556Z,99.90
2022-11-16T21:12:12.724Z,99.90
2022-11-16T21:14:41.399Z,99.90
2022-11-16T21:17:09.880Z,99.90
2022-11-16T21:19:38.472Z,99.90
2022-11-16T21:22:08.095Z,99.90
2022-11-16T21:24:36.673Z,99.90
2022-11-16T21:27:06.559Z,99.90
2022-11-16T21:29:35.216Z,99.90
2022-11-16T21:39:51.034Z,99.90
2022-11-16T21:42:20.452Z,99.90
2022-11-16T21:44:48.860Z,99.90
2022-11-16T21:47:20.774Z,99.90
2022-11-16T21:50:16.936Z,99.90
2022-11-16T21:52:38.072Z,99.90
2022-11-16T21:55:09.267Z,99.90
2022-11-16T21:57:37.780Z,99.90
2022-11-16T22:00:07.509Z,99.90
2022-11-16T22:02:41.496Z,99.90
2022-11-16T22:05:28.033Z,99.90
2022-11-16T22:07:56.617Z,99.90
2022-11-16T22:10:26.527Z,99.90
2022-11-16T22:12:55.262Z,99.90
2022-11-16T22:15:25.128Z,99.90
2022-11-16T22:17:53.658Z,99.90
2022-11-16T22:20:22.774Z,99.90
2022-11-16T22:22:51.329Z,99.90
2022-11-16T22:25:19.735Z,99.90
2022-11-16T22:28:19.100Z,99.90
2022-11-16T22:30:39.017Z,99.90
2022-11-16T22:33:07.494Z,99.90
2022-11-16T22:35:37.718Z,99.90
2022-11-16T22:38:06.573Z,99.90
2022-11-16T22:48:17.906Z,99.90
2022-11-16T22:50:47.121Z,99.90
2022-11-16T22:53:16.279Z,99.90
2022-11-16T22:55:47.080Z,99.90
2022-11-16T22:58:15.660Z,99.90
2022-11-16T23:00:44.113Z,99.90
2022-11-16T23:03:12.674Z,99.90
2022-11-16T23:05:42.878Z,99.90
2022-11-16T23:08:11.386Z,99.90
2022-11-16T23:10:59.780Z,99.90
2022-11-16T23:13:46.639Z,99.90
2022-11-16T23:16:15.166Z,99.90
2022-11-16T23:18:45.108Z,99.90
2022-11-16T23:21:32.128Z,99.90
2022-11-16T23:24:18.411Z,99.90
2022-11-16T23:27:04.658Z,99.90
2022-11-16T23:29:33.275Z,99.90
2022-11-16T23:32:01.743Z,99.90
2022-11-16T23:34:30.372Z,99.90
2022-11-16T23:37:04.870Z,99.90
2022-11-16T23:39:34.668Z,99.90
2022-11-16T23:42:20.725Z,99.90
2022-11-16T23:44:49.379Z,99.90
2022-11-16T23:47:17.876Z,99.90
2022-11-16T23:49:46.429Z,99.90
2022-11-16T23:52:16.505Z,99.90
2022-11-16T23:54:45.070Z,99.90
2022-11-16T23:57:16.050Z,99.90
2022-11-16T23:59:44.575Z,99.90
